sensor_id;sensor_type;location;lat;lon;timestamp;temperature;humidity
52321;DHT22;38261;54.090;13.382;2023-02-18T00:01:17;7.00;99.90
52321;DHT22;38261;54.090;13.382;2023-02-18T00:02:40;7.00;99.90
52321;DHT22;38261;54.090;13.382;2023-02-18T00:04:02;7.00;99.90
52321;DHT22;38261;54.090;13.382;2023-02-18T00:05:24;7.00;99.90
52321;DHT22;38261;54.090;13.382;2023-02-18T00:06:46;7.10;99.90
52321;DHT22;38261;54.090;13.382;2023-02-18T00:08:09;7.10;99.90
52321;DHT22;38261;54.090;13.382;2023-02-18T00:09:31;7.10;99.90
52321;DHT22;38261;54.090;13.382;2023-02-18T00:10:53;7.10;99.90
52321;DHT22;38261;54.090;13.382;2023-02-18T00:12:15;7.10;99.90
52321;DHT22;38261;54.090;13.382;2023-02-18T00:13:37;7.10;99.90
52321;DHT22;38261;54.090;13.382;2023-02-18T00:14:59;7.10;99.90
52321;DHT22;38261;54.090;13.382;2023-02-18T00:16:23;7.10;99.90
52321;DHT22;38261;54.090;13.382;2023-02-18T00:17:45;7.10;99.90
52321;DHT22;38261;54.090;13.382;2023-02-18T00:19:11;7.10;99.90
52321;DHT22;38261;54.090;13.382;2023-02-18T00:20:33;7.10;99.90
52321;DHT22;38261;54.090;13.382;2023-02-18T00:21:57;7.10;99.90
52321;DHT22;38261;54.090;13.382;2023-02-18T00:23:19;7.10;99.90
52321;DHT22;38261;54.090;13.382;2023-02-18T00:24:41;7.10;99.90
52321;DHT22;38261;54.090;13.382;2023-02-18T00:26:10;7.00;99.90
52321;DHT22;38261;54.090;13.382;2023-02-18T00:27:32;7.00;99.90
52321;DHT22;38261;54.090;13.382;2023-02-18T00:28:54;7.00;99.90
52321;DHT22;38261;54.090;13.382;2023-02-18T00:30:16;7.00;99.90
52321;DHT22;38261;54.090;13.382;2023-02-18T00:31:39;6.90;99.90
52321;DHT22;38261;54.090;13.382;2023-02-18T00:33:02;6.90;99.90
52321;DHT22;38261;54.090;13.382;2023-02-18T00:34:24;6.90;99.90
52321;DHT22;38261;54.090;13.382;2023-02-18T00:35:46;6.90;99.90
52321;DHT22;38261;54.090;13.382;2023-02-18T00:37:09;6.80;99.90
52321;DHT22;38261;54.090;13.382;2023-02-18T00:38:31;6.80;99.90
52321;DHT22;38261;54.090;13.382;2023-02-18T00:39:53;6.80;99.90
52321;DHT22;38261;54.090;13.382;2023-02-18T00:41:16;6.80;99.90
52321;DHT22;38261;54.090;13.382;2023-02-18T00:42:38;6.80;99.90
52321;DHT22;38261;54.090;13.382;2023-02-18T00:44:00;6.80;99.90
52321;DHT22;38261;54.090;13.382;2023-02-18T00:45:22;6.80;99.90
52321;DHT22;38261;54.090;13.382;2023-02-18T00:46:44;6.70;99.90
52321;DHT22;38261;54.090;13.382;2023-02-18T00:48:09;6.80;99.90
52321;DHT22;38261;54.090;13.382;2023-02-18T00:49:31;6.80;99.90
52321;DHT22;38261;54.090;13.382;2023-02-18T00:50:53;6.80;99.90
52321;DHT22;38261;54.090;13.382;2023-02-18T00:52:15;6.80;99.90
52321;DHT22;38261;54.090;13.382;2023-02-18T00:53:38;6.80;99.90
52321;DHT22;38261;54.090;13.382;2023-02-18T00:55:00;6.80;99.90
52321;DHT22;38261;54.090;13.382;2023-02-18T00:56:22;6.80;99.90
52321;DHT22;38261;54.090;13.382;2023-02-18T00:57:44;6.80;99.90
52321;DHT22;38261;54.090;13.382;2023-02-18T00:59:07;6.80;99.90
52321;DHT22;38261;54.090;13.382;2023-02-18T01:00:29;6.80;99.90
52321;DHT22;38261;54.090;13.382;2023-02-18T01:01:51;6.80;99.90
52321;DHT22;38261;54.090;13.382;2023-02-18T01:03:14;6.70;99.90
52321;DHT22;38261;54.090;13.382;2023-02-18T01:04:36;6.70;99.90
52321;DHT22;38261;54.090;13.382;2023-02-18T01:05:58;6.60;99.90
52321;DHT22;38261;54.090;13.382;2023-02-18T01:07:20;6.60;99.90
52321;DHT22;38261;54.090;13.382;2023-02-18T01:08:42;6.60;99.90
52321;DHT22;38261;54.090;13.382;2023-02-18T01:10:05;6.60;99.90
52321;DHT22;38261;54.090;13.382;2023-02-18T01:11:27;6.60;99.90
52321;DHT22;38261;54.090;13.382;2023-02-18T01:12:49;6.60;99.90
52321;DHT22;38261;54.090;13.382;2023-02-18T01:14:11;6.60;99.90
52321;DHT22;38261;54.090;13.382;2023-02-18T01:15:33;6.50;99.90
52321;DHT22;38261;54.090;13.382;2023-02-18T01:16:55;6.50;99.90
52321;DHT22;38261;54.090;13.382;2023-02-18T01:18:18;6.50;99.90
52321;DHT22;38261;54.090;13.382;2023-02-18T01:19:40;6.50;99.90
52321;DHT22;38261;54.090;13.382;2023-02-18T01:21:03;6.50;99.90
52321;DHT22;38261;54.090;13.382;2023-02-18T01:22:26;6.50;99.90
52321;DHT22;38261;54.090;13.382;2023-02-18T01:23:48;6.50;99.90
52321;DHT22;38261;54.090;13.382;2023-02-18T01:25:11;6.50;99.90
52321;DHT22;38261;54.090;13.382;2023-02-18T01:26:33;6.50;99.90
52321;DHT22;38261;54.090;13.382;2023-02-18T01:27:55;6.50;99.90
52321;DHT22;38261;54.090;13.382;2023-02-18T01:29:17;6.40;99.90
52321;DHT22;38261;54.090;13.382;2023-02-18T01:30:40;6.40;99.90
52321;DHT22;38261;54.090;13.382;2023-02-18T01:32:02;6.50;99.90
52321;DHT22;38261;54.090;13.382;2023-02-18T01:33:24;6.40;99.90
52321;DHT22;38261;54.090;13.382;2023-02-18T01:34:46;6.40;99.90
52321;DHT22;38261;54.090;13.382;2023-02-18T01:36:09;6.40;99.90
52321;DHT22;38261;54.090;13.382;2023-02-18T01:37:33;6.40;99.90
52321;DHT22;38261;54.090;13.382;2023-02-18T01:38:55;6.40;99.90
52321;DHT22;38261;54.090;13.382;2023-02-18T01:40:20;6.40;99.90
52321;DHT22;38261;54.090;13.382;2023-02-18T01:41:43;6.40;99.90
52321;DHT22;38261;54.090;13.382;2023-02-18T01:43:05;6.40;99.90
52321;DHT22;38261;54.090;13.382;2023-02-18T01:44:28;6.40;99.90
52321;DHT22;38261;54.090;13.382;2023-02-18T01:46:10;6.40;99.90
52321;DHT22;38261;54.090;13.382;2023-02-18T01:47:33;6.40;99.90
52321;DHT22;38261;54.090;13.382;2023-02-18T01:48:57;6.30;99.90
52321;DHT22;38261;54.090;13.382;2023-02-18T01:50:21;6.30;99.90
52321;DHT22;38261;54.090;13.382;2023-02-18T01:51:48;6.30;99.90
52321;DHT22;38261;54.090;13.382;2023-02-18T01:53:14;6.30;99.90
52321;DHT22;38261;54.090;13.382;2023-02-18T01:54:40;6.30;99.90
52321;DHT22;38261;54.090;13.382;2023-02-18T01:56:07;6.30;99.90
52321;DHT22;38261;54.090;13.382;2023-02-18T01:57:33;6.30;99.90
52321;DHT22;38261;54.090;13.382;2023-02-18T01:58:59;6.30;99.90
52321;DHT22;38261;54.090;13.382;2023-02-18T02:00:22;6.30;99.90
52321;DHT22;38261;54.090;13.382;2023-02-18T02:01:45;6.30;99.90
52321;DHT22;38261;54.090;13.382;2023-02-18T02:03:07;6.30;99.90
52321;DHT22;38261;54.090;13.382;2023-02-18T02:04:29;6.30;99.90
52321;DHT22;38261;54.090;13.382;2023-02-18T02:05:51;6.30;99.90
52321;DHT22;38261;54.090;13.382;2023-02-18T02:07:15;6.30;99.90
52321;DHT22;38261;54.090;13.382;2023-02-18T02:08:38;6.40;99.90
52321;DHT22;38261;54.090;13.382;2023-02-18T02:10:00;6.40;99.90
52321;DHT22;38261;54.090;13.382;2023-02-18T02:12:58;6.30;99.90
52321;DHT22;38261;54.090;13.382;2023-02-18T02:16:07;6.30;99.90
52321;DHT22;38261;54.090;13.382;2023-02-18T02:24:33;6.30;99.90
52321;DHT22;38261;54.090;13.382;2023-02-18T02:31:02;6.20;99.90
52321;DHT22;38261;54.090;13.382;2023-02-18T02:36:11;6.20;99.90
52321;DHT22;38261;54.090;13.382;2023-02-18T02:37:40;6.20;99.90
52321;DHT22;38261;54.090;13.382;2023-02-18T02:39:46;6.20;99.90
52321;DHT22;38261;54.090;13.382;2023-02-18T02:41:27;6.20;99.90
52321;DHT22;38261;54.090;13.382;2023-02-18T02:44:58;6.20;99.90
52321;DHT22;38261;54.090;13.382;2023-02-18T02:46:27;6.20;99.90
52321;DHT22;38261;54.090;13.382;2023-02-18T02:48:07;6.20;99.90
52321;DHT22;38261;54.090;13.382;2023-02-18T02:53:15;6.10;99.90
52321;DHT22;38261;54.090;13.382;2023-02-18T02:54:38;6.10;99.90
52321;DHT22;38261;54.090;13.382;2023-02-18T02:56:00;6.10;99.90
52321;DHT22;38261;54.090;13.382;2023-02-18T02:58:56;6.00;99.90
52321;DHT22;38261;54.090;13.382;2023-02-18T03:09:32;6.00;99.90
52321;DHT22;38261;54.090;13.382;2023-02-18T03:11:09;6.00;99.90
52321;DHT22;38261;54.090;13.382;2023-02-18T03:14:21;6.00;99.90
52321;DHT22;38261;54.090;13.382;2023-02-18T03:17:48;6.00;99.90
52321;DHT22;38261;54.090;13.382;2023-02-18T03:20:54;6.10;99.90
52321;DHT22;38261;54.090;13.382;2023-02-18T03:22:22;6.10;99.90
52321;DHT22;38261;54.090;13.382;2023-02-18T03:23:53;6.10;99.90
52321;DHT22;38261;54.090;13.382;2023-02-18T03:25:18;6.10;99.90
52321;DHT22;38261;54.090;13.382;2023-02-18T03:26:46;6.10;99.90
52321;DHT22;38261;54.090;13.382;2023-02-18T03:28:19;6.10;99.90
52321;DHT22;38261;54.090;13.382;2023-02-18T03:29:45;6.10;99.90
52321;DHT22;38261;54.090;13.382;2023-02-18T03:31:14;6.20;99.90
52321;DHT22;38261;54.090;13.382;2023-02-18T03:32:38;6.20;99.90
52321;DHT22;38261;54.090;13.382;2023-02-18T03:34:10;6.20;99.90
52321;DHT22;38261;54.090;13.382;2023-02-18T03:35:35;6.10;99.90
52321;DHT22;38261;54.090;13.382;2023-02-18T03:36:59;6.10;99.90
52321;DHT22;38261;54.090;13.382;2023-02-18T03:38:44;6.10;99.90
52321;DHT22;38261;54.090;13.382;2023-02-18T03:40:09;6.10;99.90
52321;DHT22;38261;54.090;13.382;2023-02-18T03:41:31;6.10;99.90
52321;DHT22;38261;54.090;13.382;2023-02-18T03:42:55;6.10;99.90
52321;DHT22;38261;54.090;13.382;2023-02-18T03:44:17;6.00;99.90
52321;DHT22;38261;54.090;13.382;2023-02-18T03:45:39;6.00;99.90
52321;DHT22;38261;54.090;13.382;2023-02-18T03:47:01;6.00;99.90
52321;DHT22;38261;54.090;13.382;2023-02-18T03:48:24;6.00;99.90
52321;DHT22;38261;54.090;13.382;2023-02-18T03:49:46;6.00;99.90
52321;DHT22;38261;54.090;13.382;2023-02-18T03:51:08;6.00;99.90
52321;DHT22;38261;54.090;13.382;2023-02-18T03:52:30;6.00;99.90
52321;DHT22;38261;54.090;13.382;2023-02-18T03:53:52;6.00;99.90
52321;DHT22;38261;54.090;13.382;2023-02-18T03:55:15;6.00;99.90
52321;DHT22;38261;54.090;13.382;2023-02-18T03:56:37;6.00;99.90
52321;DHT22;38261;54.090;13.382;2023-02-18T03:57:59;6.00;99.90
52321;DHT22;38261;54.090;13.382;2023-02-18T03:59:21;6.00;99.90
52321;DHT22;38261;54.090;13.382;2023-02-18T04:00:43;6.00;99.90
52321;DHT22;38261;54.090;13.382;2023-02-18T04:02:05;6.00;99.90
52321;DHT22;38261;54.090;13.382;2023-02-18T04:03:27;6.10;99.90
52321;DHT22;38261;54.090;13.382;2023-02-18T04:04:49;6.00;99.90
52321;DHT22;38261;54.090;13.382;2023-02-18T04:06:12;6.10;99.90
52321;DHT22;38261;54.090;13.382;2023-02-18T04:07:34;6.00;99.90
52321;DHT22;38261;54.090;13.382;2023-02-18T04:08:56;6.00;99.90
52321;DHT22;38261;54.090;13.382;2023-02-18T04:10:18;6.00;99.90
52321;DHT22;38261;54.090;13.382;2023-02-18T04:11:41;6.10;99.90
52321;DHT22;38261;54.090;13.382;2023-02-18T04:13:03;6.10;99.90
52321;DHT22;38261;54.090;13.382;2023-02-18T04:14:26;6.00;99.90
52321;DHT22;38261;54.090;13.382;2023-02-18T04:15:49;6.00;99.90
52321;DHT22;38261;54.090;13.382;2023-02-18T04:17:11;6.00;99.90
52321;DHT22;38261;54.090;13.382;2023-02-18T04:18:33;6.00;99.90
52321;DHT22;38261;54.090;13.382;2023-02-18T04:19:55;6.00;99.90
52321;DHT22;38261;54.090;13.382;2023-02-18T04:21:17;6.00;99.90
52321;DHT22;38261;54.090;13.382;2023-02-18T04:22:39;5.90;99.90
52321;DHT22;38261;54.090;13.382;2023-02-18T04:24:01;5.90;99.90
52321;DHT22;38261;54.090;13.382;2023-02-18T04:25:23;5.90;99.90
52321;DHT22;38261;54.090;13.382;2023-02-18T04:26:45;5.90;99.90
52321;DHT22;38261;54.090;13.382;2023-02-18T04:28:09;5.90;99.90
52321;DHT22;38261;54.090;13.382;2023-02-18T04:29:34;5.90;99.90
52321;DHT22;38261;54.090;13.382;2023-02-18T04:30:56;5.90;99.90
52321;DHT22;38261;54.090;13.382;2023-02-18T04:32:18;5.90;99.90
52321;DHT22;38261;54.090;13.382;2023-02-18T04:33:40;5.90;99.90
52321;DHT22;38261;54.090;13.382;2023-02-18T04:35:03;5.90;99.90
52321;DHT22;38261;54.090;13.382;2023-02-18T04:36:25;5.90;99.90
52321;DHT22;38261;54.090;13.382;2023-02-18T04:37:47;5.80;99.90
52321;DHT22;38261;54.090;13.382;2023-02-18T04:39:09;5.80;99.90
52321;DHT22;38261;54.090;13.382;2023-02-18T04:40:31;5.90;99.90
52321;DHT22;38261;54.090;13.382;2023-02-18T04:41:53;5.90;99.90
52321;DHT22;38261;54.090;13.382;2023-02-18T04:43:15;5.90;99.90
52321;DHT22;38261;54.090;13.382;2023-02-18T04:44:37;5.80;99.90
52321;DHT22;38261;54.090;13.382;2023-02-18T04:45:59;5.90;99.90
52321;DHT22;38261;54.090;13.382;2023-02-18T04:47:22;5.80;99.90
52321;DHT22;38261;54.090;13.382;2023-02-18T04:48:44;5.80;99.90
52321;DHT22;38261;54.090;13.382;2023-02-18T04:50:06;5.90;99.90
52321;DHT22;38261;54.090;13.382;2023-02-18T04:51:29;5.90;99.90
52321;DHT22;38261;54.090;13.382;2023-02-18T04:52:51;5.90;99.90
52321;DHT22;38261;54.090;13.382;2023-02-18T04:54:13;5.90;99.90
52321;DHT22;38261;54.090;13.382;2023-02-18T04:55:35;5.90;99.90
52321;DHT22;38261;54.090;13.382;2023-02-18T04:56:57;5.90;99.90
52321;DHT22;38261;54.090;13.382;2023-02-18T04:58:20;5.90;99.90
52321;DHT22;38261;54.090;13.382;2023-02-18T04:59:42;5.90;99.90
52321;DHT22;38261;54.090;13.382;2023-02-18T05:01:04;5.90;99.90
52321;DHT22;38261;54.090;13.382;2023-02-18T05:02:26;5.90;99.90
52321;DHT22;38261;54.090;13.382;2023-02-18T05:03:48;5.80;99.90
52321;DHT22;38261;54.090;13.382;2023-02-18T05:05:12;5.80;99.90
52321;DHT22;38261;54.090;13.382;2023-02-18T05:06:34;5.80;99.90
52321;DHT22;38261;54.090;13.382;2023-02-18T05:07:56;5.80;99.90
52321;DHT22;38261;54.090;13.382;2023-02-18T05:09:18;5.80;99.90
52321;DHT22;38261;54.090;13.382;2023-02-18T05:10:41;5.80;99.90
52321;DHT22;38261;54.090;13.382;2023-02-18T05:12:03;5.70;99.90
52321;DHT22;38261;54.090;13.382;2023-02-18T05:13:25;5.80;99.90
52321;DHT22;38261;54.090;13.382;2023-02-18T05:14:47;5.80;99.90
52321;DHT22;38261;54.090;13.382;2023-02-18T05:16:09;5.80;99.90
52321;DHT22;38261;54.090;13.382;2023-02-18T05:17:32;5.80;99.90
52321;DHT22;38261;54.090;13.382;2023-02-18T05:18:54;5.80;99.90
52321;DHT22;38261;54.090;13.382;2023-02-18T05:20:16;5.80;99.90
52321;DHT22;38261;54.090;13.382;2023-02-18T05:21:38;5.80;99.90
52321;DHT22;38261;54.090;13.382;2023-02-18T05:23:01;5.80;99.90
52321;DHT22;38261;54.090;13.382;2023-02-18T05:24:23;5.80;99.90
52321;DHT22;38261;54.090;13.382;2023-02-18T05:25:45;5.80;99.90
52321;DHT22;38261;54.090;13.382;2023-02-18T05:27:07;5.90;99.90
52321;DHT22;38261;54.090;13.382;2023-02-18T05:28:29;5.90;99.90
52321;DHT22;38261;54.090;13.382;2023-02-18T05:29:51;5.90;99.90
52321;DHT22;38261;54.090;13.382;2023-02-18T05:31:13;5.90;99.90
52321;DHT22;38261;54.090;13.382;2023-02-18T05:32:36;5.90;99.90
52321;DHT22;38261;54.090;13.382;2023-02-18T05:33:58;5.90;99.90
52321;DHT22;38261;54.090;13.382;2023-02-18T05:35:20;5.90;99.90
52321;DHT22;38261;54.090;13.382;2023-02-18T05:36:42;5.90;99.90
52321;DHT22;38261;54.090;13.382;2023-02-18T05:38:04;5.90;99.90
52321;DHT22;38261;54.090;13.382;2023-02-18T05:39:27;5.90;99.90
52321;DHT22;38261;54.090;13.382;2023-02-18T05:40:49;5.80;99.90
52321;DHT22;38261;54.090;13.382;2023-02-18T05:42:11;5.80;99.90
52321;DHT22;38261;54.090;13.382;2023-02-18T05:43:33;5.80;99.90
52321;DHT22;38261;54.090;13.382;2023-02-18T05:45:15;5.80;99.90
52321;DHT22;38261;54.090;13.382;2023-02-18T05:46:37;5.80;99.90
52321;DHT22;38261;54.090;13.382;2023-02-18T05:47:59;5.80;99.90
52321;DHT22;38261;54.090;13.382;2023-02-18T05:49:21;5.80;99.90
52321;DHT22;38261;54.090;13.382;2023-02-18T05:50:43;5.70;99.90
52321;DHT22;38261;54.090;13.382;2023-02-18T05:52:06;5.70;99.90
52321;DHT22;38261;54.090;13.382;2023-02-18T05:53:28;5.70;99.90
52321;DHT22;38261;54.090;13.382;2023-02-18T05:54:50;5.70;99.90
52321;DHT22;38261;54.090;13.382;2023-02-18T05:56:12;5.70;99.90
52321;DHT22;38261;54.090;13.382;2023-02-18T05:57:34;5.70;99.90
52321;DHT22;38261;54.090;13.382;2023-02-18T05:58:56;5.70;99.90
52321;DHT22;38261;54.090;13.382;2023-02-18T06:00:18;5.70;99.90
52321;DHT22;38261;54.090;13.382;2023-02-18T06:01:41;5.70;99.90
52321;DHT22;38261;54.090;13.382;2023-02-18T06:03:03;5.70;99.90
52321;DHT22;38261;54.090;13.382;2023-02-18T06:04:25;5.70;99.90
52321;DHT22;38261;54.090;13.382;2023-02-18T06:05:50;5.70;99.90
52321;DHT22;38261;54.090;13.382;2023-02-18T06:07:12;5.70;99.90
52321;DHT22;38261;54.090;13.382;2023-02-18T06:08:35;5.70;99.90
52321;DHT22;38261;54.090;13.382;2023-02-18T06:09:57;5.70;99.90
52321;DHT22;38261;54.090;13.382;2023-02-18T06:11:19;5.70;99.90
52321;DHT22;38261;54.090;13.382;2023-02-18T06:12:41;5.70;99.90
52321;DHT22;38261;54.090;13.382;2023-02-18T06:14:04;5.70;99.90
52321;DHT22;38261;54.090;13.382;2023-02-18T06:15:26;5.70;99.90
52321;DHT22;38261;54.090;13.382;2023-02-18T06:16:48;5.70;99.90
52321;DHT22;38261;54.090;13.382;2023-02-18T06:18:10;5.70;99.90
52321;DHT22;38261;54.090;13.382;2023-02-18T06:19:33;5.80;99.90
52321;DHT22;38261;54.090;13.382;2023-02-18T06:20:55;5.80;99.90
52321;DHT22;38261;54.090;13.382;2023-02-18T06:22:17;5.80;99.90
52321;DHT22;38261;54.090;13.382;2023-02-18T06:23:39;5.80;99.90
52321;DHT22;38261;54.090;13.382;2023-02-18T06:25:02;5.90;99.90
52321;DHT22;38261;54.090;13.382;2023-02-18T06:26:25;5.90;99.90
52321;DHT22;38261;54.090;13.382;2023-02-18T06:27:47;5.90;99.90
52321;DHT22;38261;54.090;13.382;2023-02-18T06:29:09;6.00;99.90
52321;DHT22;38261;54.090;13.382;2023-02-18T06:30:31;6.00;99.90
52321;DHT22;38261;54.090;13.382;2023-02-18T06:31:54;6.00;99.90
52321;DHT22;38261;54.090;13.382;2023-02-18T06:33:16;6.00;99.90
52321;DHT22;38261;54.090;13.382;2023-02-18T06:34:38;6.10;99.90
52321;DHT22;38261;54.090;13.382;2023-02-18T06:36:06;6.10;99.90
52321;DHT22;38261;54.090;13.382;2023-02-18T06:37:29;6.10;99.90
52321;DHT22;38261;54.090;13.382;2023-02-18T06:38:51;6.10;99.90
52321;DHT22;38261;54.090;13.382;2023-02-18T06:40:15;6.10;99.90
52321;DHT22;38261;54.090;13.382;2023-02-18T06:41:39;6.10;99.90
52321;DHT22;38261;54.090;13.382;2023-02-18T06:43:01;6.10;99.90
52321;DHT22;38261;54.090;13.382;2023-02-18T06:44:23;6.10;99.90
52321;DHT22;38261;54.090;13.382;2023-02-18T06:45:46;6.20;99.90
52321;DHT22;38261;54.090;13.382;2023-02-18T06:47:08;6.20;99.90
52321;DHT22;38261;54.090;13.382;2023-02-18T06:48:30;6.20;99.90
52321;DHT22;38261;54.090;13.382;2023-02-18T06:49:52;6.30;99.90
52321;DHT22;38261;54.090;13.382;2023-02-18T06:51:15;6.30;99.90
52321;DHT22;38261;54.090;13.382;2023-02-18T06:52:37;6.30;99.90
52321;DHT22;38261;54.090;13.382;2023-02-18T06:53:59;6.30;99.90
52321;DHT22;38261;54.090;13.382;2023-02-18T06:55:21;6.30;99.90
52321;DHT22;38261;54.090;13.382;2023-02-18T06:56:43;6.30;99.90
52321;DHT22;38261;54.090;13.382;2023-02-18T06:58:05;6.30;99.90
52321;DHT22;38261;54.090;13.382;2023-02-18T06:59:27;6.30;99.90
52321;DHT22;38261;54.090;13.382;2023-02-18T07:00:50;6.30;99.90
52321;DHT22;38261;54.090;13.382;2023-02-18T07:02:12;6.30;99.90
52321;DHT22;38261;54.090;13.382;2023-02-18T07:03:34;6.30;99.90
52321;DHT22;38261;54.090;13.382;2023-02-18T07:04:56;6.30;99.90
52321;DHT22;38261;54.090;13.382;2023-02-18T07:06:19;6.30;99.90
52321;DHT22;38261;54.090;13.382;2023-02-18T07:07:41;6.30;99.90
52321;DHT22;38261;54.090;13.382;2023-02-18T07:09:04;6.30;99.90
52321;DHT22;38261;54.090;13.382;2023-02-18T07:10:26;6.30;99.90
52321;DHT22;38261;54.090;13.382;2023-02-18T07:11:48;6.30;99.90
52321;DHT22;38261;54.090;13.382;2023-02-18T07:13:10;6.40;99.90
52321;DHT22;38261;54.090;13.382;2023-02-18T07:14:32;6.40;99.90
52321;DHT22;38261;54.090;13.382;2023-02-18T07:15:55;6.50;99.90
52321;DHT22;38261;54.090;13.382;2023-02-18T07:17:17;6.50;99.90
52321;DHT22;38261;54.090;13.382;2023-02-18T07:18:39;6.50;99.90
52321;DHT22;38261;54.090;13.382;2023-02-18T07:20:02;6.60;99.90
52321;DHT22;38261;54.090;13.382;2023-02-18T07:21:25;6.60;99.90
52321;DHT22;38261;54.090;13.382;2023-02-18T07:22:48;6.70;99.90
52321;DHT22;38261;54.090;13.382;2023-02-18T07:24:10;6.70;99.90
52321;DHT22;38261;54.090;13.382;2023-02-18T07:25:32;6.70;99.90
52321;DHT22;38261;54.090;13.382;2023-02-18T07:26:54;6.70;99.90
52321;DHT22;38261;54.090;13.382;2023-02-18T07:28:16;6.70;99.90
52321;DHT22;38261;54.090;13.382;2023-02-18T07:29:39;6.70;99.90
52321;DHT22;38261;54.090;13.382;2023-02-18T07:31:01;6.70;99.90
52321;DHT22;38261;54.090;13.382;2023-02-18T07:32:23;6.80;99.90
52321;DHT22;38261;54.090;13.382;2023-02-18T07:33:46;6.80;99.90
52321;DHT22;38261;54.090;13.382;2023-02-18T07:35:10;6.80;99.90
52321;DHT22;38261;54.090;13.382;2023-02-18T07:36:34;6.90;99.90
52321;DHT22;38261;54.090;13.382;2023-02-18T07:37:56;6.90;99.90
52321;DHT22;38261;54.090;13.382;2023-02-18T07:39:18;6.90;99.90
52321;DHT22;38261;54.090;13.382;2023-02-18T07:40:44;6.90;99.90
52321;DHT22;38261;54.090;13.382;2023-02-18T07:42:06;6.90;99.90
52321;DHT22;38261;54.090;13.382;2023-02-18T07:43:28;6.90;99.90
52321;DHT22;38261;54.090;13.382;2023-02-18T07:44:50;6.90;99.90
52321;DHT22;38261;54.090;13.382;2023-02-18T07:46:12;6.90;99.90
52321;DHT22;38261;54.090;13.382;2023-02-18T07:47:35;6.90;99.90
52321;DHT22;38261;54.090;13.382;2023-02-18T07:48:57;6.90;99.90
52321;DHT22;38261;54.090;13.382;2023-02-18T07:50:19;6.90;99.90
52321;DHT22;38261;54.090;13.382;2023-02-18T07:51:41;6.90;99.90
52321;DHT22;38261;54.090;13.382;2023-02-18T07:53:03;6.90;99.90
52321;DHT22;38261;54.090;13.382;2023-02-18T07:54:26;6.90;99.90
52321;DHT22;38261;54.090;13.382;2023-02-18T07:55:48;6.90;99.90
52321;DHT22;38261;54.090;13.382;2023-02-18T07:57:10;7.00;99.90
52321;DHT22;38261;54.090;13.382;2023-02-18T07:58:35;7.00;99.90
52321;DHT22;38261;54.090;13.382;2023-02-18T07:59:57;7.10;99.90
52321;DHT22;38261;54.090;13.382;2023-02-18T08:01:20;7.20;99.90
52321;DHT22;38261;54.090;13.382;2023-02-18T08:02:42;7.20;99.90
52321;DHT22;38261;54.090;13.382;2023-02-18T08:04:04;7.30;99.90
52321;DHT22;38261;54.090;13.382;2023-02-18T08:05:26;7.30;99.90
52321;DHT22;38261;54.090;13.382;2023-02-18T08:06:48;7.30;99.90
52321;DHT22;38261;54.090;13.382;2023-02-18T08:08:15;7.40;99.90
52321;DHT22;38261;54.090;13.382;2023-02-18T08:09:38;7.50;99.90
52321;DHT22;38261;54.090;13.382;2023-02-18T08:11:01;7.40;99.90
52321;DHT22;38261;54.090;13.382;2023-02-18T08:12:39;7.50;99.90
52321;DHT22;38261;54.090;13.382;2023-02-18T08:14:01;7.60;99.90
52321;DHT22;38261;54.090;13.382;2023-02-18T08:15:23;7.60;99.90
52321;DHT22;38261;54.090;13.382;2023-02-18T08:16:45;7.70;99.90
52321;DHT22;38261;54.090;13.382;2023-02-18T08:18:09;7.80;99.90
52321;DHT22;38261;54.090;13.382;2023-02-18T08:19:35;7.80;99.90
52321;DHT22;38261;54.090;13.382;2023-02-18T08:20:57;7.80;99.90
52321;DHT22;38261;54.090;13.382;2023-02-18T08:22:19;7.90;99.90
52321;DHT22;38261;54.090;13.382;2023-02-18T08:23:41;7.90;99.90
52321;DHT22;38261;54.090;13.382;2023-02-18T08:25:03;8.00;99.90
52321;DHT22;38261;54.090;13.382;2023-02-18T08:26:26;8.10;99.90
52321;DHT22;38261;54.090;13.382;2023-02-18T08:27:48;8.10;99.90
52321;DHT22;38261;54.090;13.382;2023-02-18T08:29:10;8.10;99.90
52321;DHT22;38261;54.090;13.382;2023-02-18T08:30:32;8.20;99.90
52321;DHT22;38261;54.090;13.382;2023-02-18T08:31:54;8.20;99.90
52321;DHT22;38261;54.090;13.382;2023-02-18T08:33:19;8.20;99.90
52321;DHT22;38261;54.090;13.382;2023-02-18T08:34:42;8.00;99.90
52321;DHT22;38261;54.090;13.382;2023-02-18T08:36:06;8.00;99.90
52321;DHT22;38261;54.090;13.382;2023-02-18T08:37:31;8.00;99.90
52321;DHT22;38261;54.090;13.382;2023-02-18T08:39:13;7.90;99.90
52321;DHT22;38261;54.090;13.382;2023-02-18T08:40:35;8.00;99.90
52321;DHT22;38261;54.090;13.382;2023-02-18T08:41:57;7.90;99.90
52321;DHT22;38261;54.090;13.382;2023-02-18T08:43:19;7.80;99.90
52321;DHT22;38261;54.090;13.382;2023-02-18T08:44:41;7.80;99.90
52321;DHT22;38261;54.090;13.382;2023-02-18T08:46:04;7.80;99.90
52321;DHT22;38261;54.090;13.382;2023-02-18T08:47:26;7.80;99.90
52321;DHT22;38261;54.090;13.382;2023-02-18T08:49:08;7.90;99.90
52321;DHT22;38261;54.090;13.382;2023-02-18T08:50:30;7.90;99.90
52321;DHT22;38261;54.090;13.382;2023-02-18T08:51:52;7.90;99.90
52321;DHT22;38261;54.090;13.382;2023-02-18T08:53:15;7.90;99.90
52321;DHT22;38261;54.090;13.382;2023-02-18T08:54:38;7.90;99.90
52321;DHT22;38261;54.090;13.382;2023-02-18T08:56:00;7.80;99.90
52321;DHT22;38261;54.090;13.382;2023-02-18T08:57:22;7.80;99.90
52321;DHT22;38261;54.090;13.382;2023-02-18T08:58:44;7.90;99.90
52321;DHT22;38261;54.090;13.382;2023-02-18T09:00:06;8.00;99.90
52321;DHT22;38261;54.090;13.382;2023-02-18T09:01:29;8.00;99.90
52321;DHT22;38261;54.090;13.382;2023-02-18T09:02:51;8.00;99.90
52321;DHT22;38261;54.090;13.382;2023-02-18T09:04:13;8.20;99.90
52321;DHT22;38261;54.090;13.382;2023-02-18T09:05:35;8.30;99.90
52321;DHT22;38261;54.090;13.382;2023-02-18T09:06:57;8.40;99.90
52321;DHT22;38261;54.090;13.382;2023-02-18T09:08:19;8.40;99.90
52321;DHT22;38261;54.090;13.382;2023-02-18T09:09:41;8.40;99.90
52321;DHT22;38261;54.090;13.382;2023-02-18T09:11:04;8.40;99.90
52321;DHT22;38261;54.090;13.382;2023-02-18T09:12:27;8.30;99.90
52321;DHT22;38261;54.090;13.382;2023-02-18T09:13:49;8.30;99.90
52321;DHT22;38261;54.090;13.382;2023-02-18T09:15:11;8.30;99.90
52321;DHT22;38261;54.090;13.382;2023-02-18T09:16:33;8.20;99.90
52321;DHT22;38261;54.090;13.382;2023-02-18T09:17:55;8.30;99.90
52321;DHT22;38261;54.090;13.382;2023-02-18T09:19:18;8.30;99.90
52321;DHT22;38261;54.090;13.382;2023-02-18T09:20:40;8.20;99.90
52321;DHT22;38261;54.090;13.382;2023-02-18T09:22:02;8.20;99.90
52321;DHT22;38261;54.090;13.382;2023-02-18T09:23:29;8.30;99.90
52321;DHT22;38261;54.090;13.382;2023-02-18T09:24:51;8.20;99.90
52321;DHT22;38261;54.090;13.382;2023-02-18T09:26:15;8.30;99.90
52321;DHT22;38261;54.090;13.382;2023-02-18T09:27:38;8.40;99.90